Terminal Aerodrome Forecast
Issued by NWS

Home | Current Version | Previous Version | Text Only | Print | Product List | Glossary On
Versions: 1 2 3 4 5 6 7 8 9 10 11 12 13 14 15 16 17 18 19 20 21 22 23 24 25 26 27 28 29 30
324
FTUS41 KBUF 301740
TAFIAG
TAF
KIAG 301740Z 3018/3118 09011KT P6SM OVC060
     FM302000 09012KT 6SM -RA OVC035
      TEMPO 3020/3022 3SM +RA OVC015
     FM302200 09012KT 6SM -RA OVC020
     FM310400 09016KT 6SM -RA OVC007
     FM310600 10016KT 6SM -RA OVC003=

USA.gov is the U.S. government's official web portal to all federal, state and local government web resources and services.